Metar Cercanos

 

LEPA - Palma De Mallorc, Spain
Distance from station: ONO 38km
Actualización: Sat, 06-Jun-2020 5:00pm CEST
Parcialmente nuboso
Parcialmente nuboso
 Viento del OSO
Viento: OSO 17 km/h
Temperatura: 24°C
Rocío: 19°C
Humedad: 74%
Barómetro: 1009 hPa
Clouds: Parcialmente nuboso
Visibility: 10 km
Cloud details: Parcialmente nuboso 549 m
2020/06/06 15:00 LEPA 061500Z 24009KT 200V280 9999 SCT018 24/19 Q1009 NOSIG
LEMH - Mahon/Menorca Is, Spain
Distance from station: ENE 105km
Actualización: Sat, 06-Jun-2020 5:00pm CEST
Few Clouds
Few Clouds
 Viento del SSO
Viento: SSO 22 km/h
Temperatura: 23°C
Rocío: 19°C
Humedad: 78%
Barómetro: 1010 hPa
Clouds: Few Clouds
Visibility: 10 km
Cloud details: Few Clouds 274 m
2020/06/06 15:00 LEMH 061500Z 20012KT 170V230 9999 FEW009 23/19 Q1010
 
LEIB - Ibiza/Es Codola, Spain
Distance from station: OSO 165km
Actualización: Sat, 06-Jun-2020 5:00pm CEST
Muy nuboso
Muy nuboso
 Viento del SSO
Viento: SSO 17 km/h
Temperatura: 24°C
Rocío: 19°C
Humedad: 74%
Barómetro: 1008 hPa
Clouds: Muy nuboso
Visibility: 10 km
Cloud details: Muy nuboso 366 m
2020/06/06 15:00 LEIB 061500Z 21009KT 170V250 9999 BKN012 24/19 Q1008 NOSIG
LEBL - Barcelona Airpor, Spain
Distance from station: NNO 225km
Actualización: Sat, 06-Jun-2020 5:00pm CEST
Muy nuboso
Muy nuboso
 Viento del ESE
Viento: ESE 13 km/h
Temperatura: 23°C
Rocío: 18°C
Humedad: 74%
Barómetro: 1008 hPa
Clouds: Muy nuboso
Visibility: 10 km
Cloud details: Few Clouds 366 m
Muy nuboso 671 m
2020/06/06 15:00 LEBL 061500Z 11007KT 060V140 9999 FEW012 BKN022 23/18 Q1008 NOSIG
 
LEVC - Valencia (civ/Mi, Spain
Distance from station: NO 188km
Actualización: Sat, 06-Jun-2020 5:00pm CEST
Few Clouds
Few Clouds
 Viento del SE
Viento: SE 30 km/h
Temperatura: 31°C
Rocío: 12°C
Humedad: 31%
Barómetro: 1006 hPa
Clouds: Few Clouds
Visibility: 10 km
Cloud details: Few Clouds 1219 m
2020/06/06 15:00 LEVC 061500Z 13016KT 9999 FEW040 31/12 Q1006 NOSIG
LEGE - Gerona/Costa Bra, Spain
Distance from station: N 276km
Actualización: Sat, 06-Jun-2020 5:00pm CEST
Despejado
Despejado
 Viento del S
Viento: S 22 km/h
Temperatura: 23°C
Rocío: 16°C
Humedad: 65%
Barómetro: 1007 hPa
Resumen: Despejado
Visibility: greater than 10 km
2020/06/06 15:00 LEGE 061500Z 17012KT CAVOK 23/16 Q1007
 
LEAL - Alicante/El Alte, Spain
Distance from station: OSO 344km
Actualización: Sat, 06-Jun-2020 5:00pm CEST
Despejado
Despejado
 Viento del S
Viento: S 15 km/h
Temperatura: 28°C
Indice Calor: 28°C
Rocío: 16°C
Humedad: 48%
Barómetro: 1007 hPa
Resumen: Despejado
Visibility: greater than 10 km
2020/06/06 15:00 LEAL 061500Z 18008KT 090V240 CAVOK 28/16 Q1007 NOSIG
LEAM - Almeria Airport, Spain
Distance from station: SSO 56km
Actualización: Sat, 06-Jun-2020 5:00pm CEST
Despejado
Despejado
 Viento del OSO
Viento: OSO 15 km/h
Temperatura: 22°C
Rocío: 17°C
Humedad: 73%
Barómetro: 1008 hPa
Resumen: Despejado
Visibility: greater than 10 km
2020/06/06 15:00 LEAM 061500Z AUTO 24008KT 200V270 CAVOK 22/17 Q1008
 
LEZG - Zaragoza (mil/Ci, Spain
Distance from station: NO 431km
Actualización: Sat, 06-Jun-2020 5:00pm CEST
Few Clouds
Few Clouds
 Viento del SO
Viento: SO 6 km/h
Temperatura: 28°C
Indice Calor: 27°C
Rocío: 13°C
Humedad: 40%
Barómetro: 1005 hPa
Clouds: Few Clouds
Visibility: 10 km
Cloud details: Few Clouds 1524 m
2020/06/06 15:00 LEZG 061500Z 23003KT 170V330 9999 FEW050 28/13 Q1005
LEMD - Madrid/Barajas, Spain
Distance from station: ONO 234km
Actualización: Sat, 06-Jun-2020 5:00pm CEST
Parcialmente nuboso
Parcialmente nuboso
 Viento del SSO
Viento: SSO 19 km/h
Temperatura: 28°C
Rocío: 7°C
Humedad: 26%
Barómetro: 1008 hPa
Clouds: Parcialmente nuboso
Visibility: 10 km
Cloud details: Parcialmente nuboso 2286 m
2020/06/06 15:00 LEMD 061500Z 20010KT 180V240 9999 SCT075 28/07 Q1008 NOSIG
 
LEGR - Granada Airport, Spain
Distance from station: OSO 62km
Actualización: Sat, 06-Jun-2020 5:00pm CEST
Despejado
Despejado
 Viento del SO
Viento: SO 24 km/h
Temperatura: 29°C
Rocío: 8°C
Humedad: 27%
Barómetro: 1011 hPa
Resumen: Despejado
Visibility: greater than 10 km
2020/06/06 15:00 LEGR 061500Z AUTO 23013KT 190V280 CAVOK 29/08 Q1011
LEMG - Malaga (civ/Mil), Spain
Distance from station: OSO 227km
Actualización: Sat, 06-Jun-2020 5:00pm CEST
Few Clouds
Few Clouds
 Viento del S
Viento: S 24 km/h
Temperatura: 30°C
Rocío: 14°C
Humedad: 38%
Barómetro: 1009 hPa
Clouds: Few Clouds
Visibility: 10 km
Cloud details: Few Clouds 1524 m
2020/06/06 15:00 LEMG 061500Z 18013KT 130V220 9999 FEW050 30/14 Q1009 NOSIG
 
LEZL - Sevilla (civ/Mil, Spain
Distance from station: S 318km
Actualización: Sat, 06-Jun-2020 5:00pm CEST
Few Clouds
Few Clouds
 Viento del SO
Viento: SO 20 km/h
Temperatura: 28°C
Rocío: 10°C
Humedad: 32%
Barómetro: 1009 hPa
Clouds: Few Clouds
Visibility: 10 km
Cloud details: Few Clouds 1067 m
2020/06/06 15:00 LEZL 061500Z 23011KT 180V280 9999 FEW035 28/10 Q1009 NOSIG
LEVT - Vitoria, Spain
Distance from station: NO 226km
Actualización: Sat, 06-Jun-2020 5:00pm CEST
Cubierto
Cubierto
 Viento del NNE
Viento: NNE 22 km/h
Temperatura: 16°C
Rocío: 13°C
Humedad: 83%
Barómetro: 1010 hPa
Clouds: Cubierto
Visibility: 10 km
Cloud details: Few Clouds 640 m
Cubierto 823 m
2020/06/06 15:00 LEVT 061500Z 02012KT 340V060 9999 FEW021 OVC027 16/13 Q1010
 
LEBB - Bilbao/Sondica, Spain
Distance from station: NNO 235km
Actualización: Sat, 06-Jun-2020 5:00pm CEST
Muy nuboso
Muy nuboso
 Viento del NO
Viento: NO 17 km/h
Temperatura: 18°C
Rocío: 15°C
Humedad: 83%
Barómetro: 1010 hPa
Clouds: Muy nuboso
Visibility: 10 km
Cloud details: Few Clouds 427 m
Parcialmente nuboso 610 m
Muy nuboso 914 m
2020/06/06 15:00 LEBB 061500Z 32009KT 280V350 9999 FEW014 SCT020 BKN030 18/15 Q1010 NOSIG
LESO - San Sebastian/Fu, Spain
Distance from station: N 231km
Actualización: Sat, 06-Jun-2020 5:00pm CEST
Muy nuboso
Muy nuboso
 Viento del ONO
Viento: ONO 11 km/h
Temperatura: 19°C
Rocío: 15°C
Humedad: 78%
Barómetro: 1010 hPa
Clouds: Muy nuboso
Visibility: 10 km
Cloud details: Parcialmente nuboso 518 m
Muy nuboso 732 m
Muy nuboso 1372 m
2020/06/06 15:00 LESO 061500Z 29006KT 240V010 9999 SCT017 BKN024 BKN045 19/15 Q1010
 
LEVD - Valladolid(Mil/C, Spain
Distance from station: ONO 239km
Actualización: Sat, 06-Jun-2020 5:00pm CEST
Despejado
Despejado
 Viento del OSO
Viento: OSO 17 km/h
Temperatura: 23°C
Rocío: 8°C
Humedad: 38%
Barómetro: 1008 hPa
Resumen: Despejado
Visibility: greater than 10 km
2020/06/06 15:00 LEVD 061500Z AUTO 25009KT 210V280 CAVOK 23/08 Q1008
LESA - Salamanca (civ/M, Spain
Distance from station: ONO 349km
Actualización: Sat, 06-Jun-2020 5:00pm CEST
Despejado
Despejado
 Viento del O
Viento: O 22 km/h
Temperatura: 26°C
Rocío: 8°C
Humedad: 32%
Barómetro: 1009 hPa
Resumen: Despejado
Visibility: greater than 10 km
2020/06/06 15:00 LESA 061500Z AUTO 27012KT 230V320 CAVOK 26/08 Q1009
 
LEXJ - Santander/Paraya, Spain
Distance from station: NNO 247km
Actualización: Sat, 06-Jun-2020 5:00pm CEST
Parcialmente nuboso
Parcialmente nuboso
 Viento del ONO
Viento: ONO 19 km/h
Temperatura: 18°C
Rocío: 15°C
Humedad: 83%
Barómetro: 1011 hPa
Clouds: Parcialmente nuboso
Visibility: 7 km
Cloud details: Parcialmente nuboso 549 m
Parcialmente nuboso 914 m
2020/06/06 15:00 LEXJ 061500Z AUTO 30010KT 270V330 7000 SCT018 SCT030 18/15 Q1011
LEAS - Asturias/Aviles, Spain
Distance from station: NO 214km
Actualización: Sat, 06-Jun-2020 5:00pm CEST
Cubierto
Cubierto
 Viento del NO
Viento: NO 13 km/h
Temperatura: 16°C
Rocío: 15°C
Humedad: 94%
Barómetro: 1011 hPa
Clouds: Cubierto
Visibility: 10 km
Cloud details: Few Clouds 122 m
Muy nuboso 274 m
Cubierto 457 m
2020/06/06 15:00 LEAS 061500Z AUTO 31007KT 280V010 9999 FEW004 BKN009 OVC015 16/15 Q1011
 
LECO - La Coruna/Alvedr, Spain
Distance from station: ONO 222km
Actualización: Sat, 06-Jun-2020 5:00pm CEST
Muy nuboso
Muy nuboso
 Viento del N
Viento: N 13 km/h
Temperatura: 16°C
Rocío: 13°C
Humedad: 83%
Barómetro: 1012 hPa
Clouds: Muy nuboso
Visibility: 10 km
Cloud details: Few Clouds 366 m
Parcialmente nuboso 823 m
Muy nuboso 1189 m
2020/06/06 15:00 LECO 061500Z AUTO 01007KT 320V060 9999 FEW012 SCT027 BKN039 16/13 Q1012
LEVX - Vigo/Peinador, Spain
Distance from station: O 214km
Actualización: Sat, 06-Jun-2020 5:00pm CEST
Parcialmente nuboso
Parcialmente nuboso
 Viento del O
Viento: O 19 km/h
Temperatura: 19°C
Rocío: 13°C
Humedad: 68%
Barómetro: 1011 hPa
Clouds: Parcialmente nuboso
Visibility: 10 km
Cloud details: Parcialmente nuboso 792 m
2020/06/06 15:00 LEVX 061500Z 27010KT 240V330 9999 SCT026 19/13 Q1011 NOSIG